createdAt,value
2019-02-18T00:00:06.274Z,83.15
2019-02-18T00:01:04.815Z,83.62
2019-02-18T00:02:03.378Z,84.2
2019-02-18T00:03:01.935Z,84.01
2019-02-18T00:04:00.486Z,83.91
2019-02-18T00:04:59.024Z,84.1
2019-02-18T00:05:57.753Z,84.1
2019-02-18T00:06:56.414Z,84.39
2019-02-18T00:07:54.944Z,84.48
2019-02-18T00:08:53.502Z,85.34
2019-02-18T00:09:52.198Z,84.67
2019-02-18T00:10:50.740Z,84.48
2019-02-18T00:11:49.283Z,83.82
2019-02-18T00:12:47.899Z,84.29
2019-02-18T00:13:46.430Z,84.1
2019-02-18T00:14:44.952Z,84.29
2019-02-18T00:15:43.504Z,84.67
2019-02-18T00:16:42.041Z,84.86
2019-02-18T00:17:40.573Z,84.01
2019-02-18T00:18:39.129Z,84.29
2019-02-18T00:19:37.672Z,84.29
2019-02-18T00:20:36.330Z,84.1
2019-02-18T00:21:34.897Z,84.01
2019-02-18T00:22:33.536Z,83.91
2019-02-18T00:23:32.175Z,84.2
2019-02-18T00:24:30.736Z,84.1
2019-02-18T00:25:29.288Z,84.29
2019-02-18T00:26:27.978Z,84.01
2019-02-18T00:27:26.656Z,84.01
2019-02-18T00:28:25.210Z,84.2
2019-02-18T00:29:23.759Z,84.1
2019-02-18T00:30:22.345Z,84.29
2019-02-18T00:31:20.896Z,84.01
2019-02-18T00:32:19.450Z,83.62
2019-02-18T00:33:18.268Z,83.91
2019-02-18T00:34:16.829Z,84.39
2019-02-18T00:35:15.364Z,84.01
2019-02-18T00:36:14.173Z,84.25
2019-02-18T00:37:12.765Z,84.34
2019-02-18T00:38:11.292Z,85.49
2019-02-18T00:39:09.808Z,85.3
2019-02-18T00:40:08.471Z,85.68
2019-02-18T00:41:07.013Z,85.58
2019-02-18T00:42:05.558Z,85.86
2019-02-18T00:43:04.268Z,85.58
2019-02-18T00:44:02.797Z,84.91
2019-02-18T00:45:01.364Z,85.39
2019-02-18T00:46:00.005Z,85.49
2019-02-18T00:46:58.654Z,84.82
2019-02-18T00:47:57.216Z,85.2
2019-02-18T00:48:55.864Z,84.91
2019-02-18T00:49:55.455Z,84.91
2019-02-18T00:50:54.104Z,85.39
2019-02-18T00:51:52.665Z,84.91
2019-02-18T00:52:51.202Z,85.2
2019-02-18T00:53:49.743Z,85.11
2019-02-18T00:54:48.544Z,85.96
2019-02-18T00:55:47.026Z,86.15
2019-02-18T00:56:45.556Z,85.77
2019-02-18T00:57:44.168Z,85.86
2019-02-18T00:58:43.751Z,85.39
2019-02-18T00:59:41.314Z,84.91
2019-02-18T01:00:40.002Z,85.86
2019-02-18T01:01:38.674Z,85.96
2019-02-18T01:02:37.220Z,85.86
2019-02-18T01:03:35.768Z,85.96
2019-02-18T01:04:34.386Z,85.86
2019-02-18T01:05:32.974Z,85.86
2019-02-18T01:06:31.585Z,86.15
2019-02-18T01:07:34.666Z,86.15
2019-02-18T01:08:28.798Z,85.86
2019-02-18T01:09:27.323Z,86.24
2019-02-18T01:10:26.128Z,85.96
2019-02-18T01:11:24.706Z,86.05
2019-02-18T01:12:23.231Z,85.86
2019-02-18T01:13:21.925Z,85.58
2019-02-18T01:14:20.524Z,85.58
2019-02-18T01:15:19.054Z,85.2
2019-02-18T01:16:17.590Z,85.11
2019-02-18T01:17:16.165Z,85.11
2019-02-18T01:18:14.715Z,85.11
2019-02-18T01:19:13.238Z,84.91
2019-02-18T01:20:12.090Z,84.53
2019-02-18T01:21:10.812Z,85.11
2019-02-18T01:22:09.379Z,84.72
2019-02-18T01:23:07.993Z,85.11
2019-02-18T01:24:06.566Z,85.2
2019-02-18T01:25:05.121Z,85.11
2019-02-18T01:26:03.712Z,85.49
2019-02-18T01:27:02.262Z,85.58
2019-02-18T01:28:00.822Z,84.91
2019-02-18T01:28:59.337Z,85.49
2019-02-18T01:29:58.024Z,85.77
2019-02-18T01:30:56.600Z,85.58
2019-02-18T01:31:55.170Z,85.58
2019-02-18T01:32:54.141Z,86.05
2019-02-18T01:33:52.796Z,85.58
2019-02-18T01:34:51.363Z,85.68
2019-02-18T01:35:49.934Z,86.05
2019-02-18T01:36:48.531Z,85.77
2019-02-18T01:37:47.064Z,85.77
2019-02-18T01:38:45.787Z,85.77
2019-02-18T01:39:44.517Z,85.58
2019-02-18T01:40:43.216Z,85.39
2019-02-18T01:41:41.782Z,85.49
2019-02-18T01:42:40.370Z,85.39
2019-02-18T01:43:38.931Z,84.91
2019-02-18T01:44:37.715Z,85.2
2019-02-18T01:45:36.308Z,85.11
2019-02-18T01:46:34.860Z,85.11
2019-02-18T01:47:33.440Z,84.72
2019-02-18T01:48:32.106Z,84.63
2019-02-18T01:49:30.704Z,85.11
2019-02-18T01:50:29.289Z,84.16
2019-02-18T01:51:27.923Z,85.01
2019-02-18T01:52:26.515Z,84.63
2019-02-18T01:53:25.046Z,85.01
2019-02-18T01:54:23.605Z,85.3
2019-02-18T01:55:22.125Z,84.82
2019-02-18T01:56:20.683Z,85.2
2019-02-18T01:57:19.283Z,85.3
2019-02-18T01:58:17.932Z,85.01
2019-02-18T01:59:16.574Z,85.11
2019-02-18T02:00:15.153Z,85.49
2019-02-18T02:01:13.799Z,85.68
2019-02-18T02:02:12.397Z,86.05
2019-02-18T02:03:10.928Z,85.96
2019-02-18T02:04:09.495Z,86.39
2019-02-18T02:05:08.407Z,86.58
2019-02-18T02:06:06.925Z,86.77
2019-02-18T02:07:05.484Z,86.77
2019-02-18T02:08:04.221Z,86.77
2019-02-18T02:09:02.813Z,86.77
2019-02-18T02:10:01.341Z,86.77
2019-02-18T02:10:59.900Z,86.77
2019-02-18T02:11:58.579Z,86.77
2019-02-18T02:12:57.124Z,86.2
2019-02-18T02:13:55.791Z,86.11
2019-02-18T02:14:54.416Z,86.24
2019-02-18T02:15:52.966Z,85.86
2019-02-18T02:16:51.509Z,85.11
2019-02-18T02:17:50.039Z,84.97
2019-02-18T02:18:48.604Z,85.63
2019-02-18T02:19:47.134Z,85.91
2019-02-18T02:20:45.673Z,85.63
2019-02-18T02:21:44.241Z,85.72
2019-02-18T02:22:42.809Z,85.82
2019-02-18T02:23:41.364Z,85.72
2019-02-18T02:24:40.052Z,85.06
2019-02-18T02:25:38.642Z,85.72
2019-02-18T02:26:37.187Z,85.44
2019-02-18T02:27:35.752Z,85.72
2019-02-18T02:28:34.408Z,85.63
2019-02-18T02:29:32.927Z,85.91
2019-02-18T02:30:31.485Z,86.01
2019-02-18T02:31:30.220Z,85.91
2019-02-18T02:32:28.777Z,84.91
2019-02-18T02:33:27.320Z,84.68
2019-02-18T02:34:25.882Z,84.72
2019-02-18T02:35:24.414Z,85.06
2019-02-18T02:36:22.956Z,84.4
2019-02-18T02:37:23.535Z,85.06
2019-02-18T02:38:22.240Z,84.68
2019-02-18T02:39:20.747Z,84.49
2019-02-18T02:40:19.344Z,84.68
2019-02-18T02:41:18.065Z,84.63
2019-02-18T02:42:16.837Z,84.4
2019-02-18T02:43:15.411Z,84.78
2019-02-18T02:44:13.937Z,83.97
2019-02-18T02:45:12.514Z,83.3
2019-02-18T02:46:11.020Z,83.11
2019-02-18T02:47:09.566Z,83.68
2019-02-18T02:48:08.354Z,83.3
2019-02-18T02:49:06.929Z,82.73
2019-02-18T02:50:05.518Z,82.31
2019-02-18T02:51:04.232Z,83.49
2019-02-18T02:52:02.764Z,82.26
2019-02-18T02:53:01.330Z,82.45
2019-02-18T02:53:59.880Z,83.2
2019-02-18T02:54:58.465Z,82.64
2019-02-18T02:55:57.011Z,82.26
2019-02-18T02:56:55.568Z,83.01
2019-02-18T02:57:54.217Z,82.54
2019-02-18T02:58:52.791Z,82.45
2019-02-18T02:59:51.351Z,82.45
2019-02-18T03:00:50.011Z,82.45
2019-02-18T03:01:48.647Z,82.16
2019-02-18T03:02:47.186Z,82.07
2019-02-18T03:03:45.782Z,81.68
2019-02-18T03:04:44.489Z,82.07
2019-02-18T03:05:43.079Z,82.07
2019-02-18T03:06:41.645Z,82.26
2019-02-18T03:07:40.291Z,82.4
2019-02-18T03:08:38.872Z,82.35
2019-02-18T03:09:37.430Z,82.07
2019-02-18T03:10:35.955Z,81.87
2019-02-18T03:11:34.538Z,81.68
2019-02-18T03:12:33.078Z,82.03
2019-02-18T03:13:31.721Z,82.69
2019-02-18T03:14:30.471Z,82.45
2019-02-18T03:15:29.011Z,82.07
2019-02-18T03:16:27.591Z,81.97
2019-02-18T03:17:26.187Z,81.78
2019-02-18T03:18:24.730Z,81.84
2019-02-18T03:19:23.273Z,82.4
2019-02-18T03:20:21.923Z,82.4
2019-02-18T03:21:20.478Z,82.5
2019-02-18T03:22:19.025Z,83.07
2019-02-18T03:23:17.570Z,82.78
2019-02-18T03:24:16.092Z,82.97
2019-02-18T03:25:14.772Z,83.45
2019-02-18T03:26:13.321Z,83.07
2019-02-18T03:27:12.061Z,82.97
2019-02-18T03:28:10.611Z,83.07
2019-02-18T03:29:09.166Z,82.78
2019-02-18T03:30:07.721Z,82.97
2019-02-18T03:31:06.337Z,82.69
2019-02-18T03:32:04.884Z,82.4
2019-02-18T03:33:03.455Z,82.31
2019-02-18T03:34:02.131Z,82.59
2019-02-18T03:35:01.214Z,82.69
2019-02-18T03:35:59.271Z,82.5
2019-02-18T03:36:57.761Z,82.5
2019-02-18T03:37:56.432Z,82.31
2019-02-18T03:38:55.168Z,82.97
2019-02-18T03:39:53.778Z,82.78
2019-02-18T03:41:02.696Z,83.16
2019-02-18T03:41:51.044Z,83.83
2019-02-18T03:42:49.717Z,83.16
2019-02-18T03:43:48.409Z,82.88
2019-02-18T03:44:46.949Z,83.36
2019-02-18T03:45:45.511Z,84.4
2019-02-18T03:46:44.077Z,84.21
2019-02-18T03:47:42.611Z,84.07
2019-02-18T03:48:41.164Z,84.92
2019-02-18T03:49:39.920Z,85.21
2019-02-18T03:50:38.517Z,85.02
2019-02-18T03:51:37.079Z,84.83
2019-02-18T03:52:35.607Z,84.74
2019-02-18T03:53:34.365Z,85.02
2019-02-18T03:54:32.927Z,84.74
2019-02-18T03:55:31.486Z,85.21
2019-02-18T03:56:30.118Z,85.3
2019-02-18T03:57:28.648Z,84.92
2019-02-18T03:58:27.172Z,85.78
2019-02-18T03:59:25.721Z,85.49
2019-02-18T04:00:24.268Z,85.3
2019-02-18T04:01:22.833Z,85.06
2019-02-18T04:02:21.381Z,84.49
2019-02-18T04:03:20.276Z,84.3
2019-02-18T04:04:18.871Z,84.68
2019-02-18T04:05:17.398Z,84.87
2019-02-18T04:06:16.076Z,85.06
2019-02-18T04:07:14.626Z,85.16
2019-02-18T04:08:13.185Z,84.4
2019-02-18T04:09:11.740Z,84.68
2019-02-18T04:10:10.306Z,84.49
2019-02-18T04:11:08.902Z,84.78
2019-02-18T04:12:07.511Z,84.4
2019-02-18T04:13:06.134Z,84.4
2019-02-18T04:14:04.688Z,84.3
2019-02-18T04:15:03.203Z,83.83
2019-02-18T04:16:01.858Z,84.01
2019-02-18T04:17:00.518Z,84.01
2019-02-18T04:17:59.084Z,83.64
2019-02-18T04:18:57.738Z,83.54
2019-02-18T04:19:56.503Z,83.54
2019-02-18T04:20:55.055Z,83.54
2019-02-18T04:21:53.572Z,84.01
2019-02-18T04:22:52.125Z,84.01
2019-02-18T04:23:50.680Z,84.01
2019-02-18T04:24:49.235Z,83.92
2019-02-18T04:25:47.791Z,83.78
2019-02-18T04:26:46.425Z,84.45
2019-02-18T04:27:45.034Z,84.45
2019-02-18T04:28:43.630Z,83.83
2019-02-18T04:29:42.459Z,83.83
2019-02-18T04:30:41.013Z,84.21
2019-02-18T04:31:39.730Z,83.45
2019-02-18T04:32:38.286Z,83.26
2019-02-18T04:33:36.834Z,82.97
2019-02-18T04:34:35.371Z,83.07
2019-02-18T04:35:33.980Z,83.16
2019-02-18T04:36:32.564Z,82.4
2019-02-18T04:37:31.092Z,82.4
2019-02-18T04:38:29.761Z,82.21
2019-02-18T04:39:28.577Z,82.5
2019-02-18T04:40:27.127Z,82.4
2019-02-18T04:41:25.680Z,82.69
2019-02-18T04:42:24.363Z,82.21
2019-02-18T04:43:22.928Z,82.5
2019-02-18T04:44:21.509Z,82.31
2019-02-18T04:45:20.016Z,81.93
2019-02-18T04:46:18.624Z,82.03
2019-02-18T04:47:17.186Z,82.21
2019-02-18T04:48:15.762Z,82.5
2019-02-18T04:49:14.455Z,82.78
2019-02-18T04:50:13.006Z,82.4
2019-02-18T04:51:11.537Z,82.78
2019-02-18T04:52:10.246Z,82.93
2019-02-18T04:53:08.798Z,83.36
2019-02-18T04:54:07.351Z,83.36
2019-02-18T04:55:06.142Z,83.03
2019-02-18T04:56:04.745Z,83.31
2019-02-18T04:57:03.609Z,83.97
2019-02-18T04:58:02.436Z,83.69
2019-02-18T04:59:00.995Z,83.97
2019-02-18T04:59:59.508Z,83.97
2019-02-18T05:00:58.182Z,84.17
2019-02-18T05:01:56.817Z,84.36
2019-02-18T05:02:55.302Z,83.4
2019-02-18T05:03:53.846Z,83.5
2019-02-18T05:04:52.482Z,83.54
2019-02-18T05:05:51.050Z,82.88
2019-02-18T05:06:49.681Z,83.22
2019-02-18T05:07:48.285Z,83.4
2019-02-18T05:08:46.865Z,82.93
2019-02-18T05:09:45.502Z,82.93
2019-02-18T05:10:44.150Z,82.93
2019-02-18T05:11:42.787Z,83.03
2019-02-18T05:12:41.356Z,83.03
2019-02-18T05:13:39.872Z,83.03
2019-02-18T05:14:38.432Z,83.12
2019-02-18T05:15:37.018Z,83.59
2019-02-18T05:16:35.538Z,83.4
2019-02-18T05:17:34.152Z,84.07
2019-02-18T05:18:32.719Z,83.69
2019-02-18T05:19:31.236Z,83.88
2019-02-18T05:20:29.987Z,84.17
2019-02-18T05:21:28.632Z,84.17
2019-02-18T05:22:27.200Z,84.83
2019-02-18T05:23:25.878Z,84.55
2019-02-18T05:24:24.606Z,85.02
2019-02-18T05:25:23.141Z,84.17
2019-02-18T05:26:21.759Z,84.36
2019-02-18T05:27:20.282Z,84.92
2019-02-18T05:28:18.848Z,84.55
2019-02-18T05:29:17.423Z,85.02
2019-02-18T05:30:16.141Z,85.11
2019-02-18T05:31:15.200Z,84.92
2019-02-18T05:32:13.748Z,84.36
2019-02-18T05:33:12.278Z,84.17
2019-02-18T05:34:10.884Z,84.26
2019-02-18T05:35:09.464Z,84.07
2019-02-18T05:36:08.139Z,83.97
2019-02-18T05:37:06.694Z,84.17
2019-02-18T05:38:05.290Z,84.36
2019-02-18T05:39:03.887Z,84.83
2019-02-18T05:40:02.762Z,84.64
2019-02-18T05:41:01.346Z,84.64
2019-02-18T05:41:59.975Z,84.26
2019-02-18T05:42:58.744Z,84.92
2019-02-18T05:43:57.268Z,84.83
2019-02-18T05:44:55.955Z,84.36
2019-02-18T05:45:54.597Z,83.88
2019-02-18T05:46:53.119Z,83.88
2019-02-18T05:47:51.697Z,84.45
2019-02-18T05:48:50.333Z,84.92
2019-02-18T05:49:48.926Z,85.02
2019-02-18T05:50:47.472Z,84.17
2019-02-18T05:51:46.031Z,84.26
2019-02-18T05:52:44.671Z,84.26
2019-02-18T05:53:43.220Z,84.07
2019-02-18T05:54:42.042Z,83.97
2019-02-18T05:55:40.742Z,84.07
2019-02-18T05:56:39.351Z,83.97
2019-02-18T05:57:38.015Z,83.97
2019-02-18T05:58:36.698Z,83.78
2019-02-18T05:59:35.312Z,82.74
2019-02-18T06:00:34.058Z,82.27
2019-02-18T06:01:32.810Z,82.17
2019-02-18T06:02:31.358Z,82.46
2019-02-18T06:03:29.922Z,82.31
2019-02-18T06:04:28.550Z,82.31
2019-02-18T06:05:27.075Z,81.93
2019-02-18T06:06:25.645Z,81.98
2019-02-18T06:07:24.232Z,82.36
2019-02-18T06:08:22.779Z,82.46
2019-02-18T06:09:28.907Z,82.46
2019-02-18T06:10:19.819Z,82.46
2019-02-18T06:11:18.404Z,82.27
2019-02-18T06:12:16.910Z,82.84
2019-02-18T06:13:15.466Z,82.84
2019-02-18T06:14:14.063Z,83.31
2019-02-18T06:15:12.656Z,83.03
2019-02-18T06:16:11.198Z,83.4
2019-02-18T06:17:09.737Z,83.12
2019-02-18T06:18:08.594Z,83.03
2019-02-18T06:19:07.125Z,83.4
2019-02-18T06:20:05.696Z,83.12
2019-02-18T06:22:13.414Z,83.78
2019-02-18T06:23:12.084Z,83.59
2019-02-18T06:24:10.746Z,82.93
2019-02-18T06:25:09.319Z,82.93
2019-02-18T06:26:07.836Z,82.65
2019-02-18T06:27:06.437Z,82.93
2019-02-18T06:28:05.057Z,83.12
2019-02-18T06:29:03.466Z,83.22
2019-02-18T06:30:01.957Z,84.26
2019-02-18T06:31:00.489Z,84.07
2019-02-18T06:31:59.076Z,85.3
2019-02-18T06:32:57.570Z,85.21
2019-02-18T06:33:56.170Z,84.83
2019-02-18T06:34:54.750Z,85.02
2019-02-18T06:35:53.278Z,85.11
2019-02-18T06:36:51.950Z,85.21
2019-02-18T06:37:50.634Z,86.07
2019-02-18T06:38:49.169Z,86.91
2019-02-18T06:39:47.844Z,88.15
2019-02-18T06:40:46.509Z,87.87
2019-02-18T06:41:45.935Z,87.39
2019-02-18T06:42:44.501Z,88.15
2019-02-18T06:43:43.087Z,88.72
2019-02-18T06:44:41.585Z,89.2
2019-02-18T06:45:40.155Z,88.39
2019-02-18T06:46:38.714Z,87.96
2019-02-18T06:47:37.246Z,87.96
2019-02-18T06:48:35.899Z,87.82
2019-02-18T06:49:34.517Z,87.43
2019-02-18T06:50:33.246Z,87.82
2019-02-18T06:51:32.313Z,86.96
2019-02-18T06:52:32.597Z,87.53
2019-02-18T06:53:29.699Z,87.72
2019-02-18T06:54:28.307Z,87.82
2019-02-18T06:55:26.986Z,87.91
2019-02-18T06:56:25.551Z,88.1
2019-02-18T06:57:24.189Z,88.48
2019-02-18T06:58:22.807Z,88.29
2019-02-18T06:59:21.338Z,88.01
2019-02-18T07:00:19.853Z,88.67
2019-02-18T07:01:18.477Z,88.29
2019-02-18T07:02:17.019Z,86.77
2019-02-18T07:03:15.539Z,86.3
2019-02-18T07:04:14.214Z,87.15
2019-02-18T07:05:14.787Z,88.01
2019-02-18T07:06:13.449Z,88.67
2019-02-18T07:07:12.169Z,88.2
2019-02-18T07:08:10.891Z,88.29
2019-02-18T07:09:09.424Z,88.1
2019-02-18T07:10:07.988Z,89.05
2019-02-18T07:11:06.539Z,90.28
2019-02-18T07:12:05.144Z,91.04
2019-02-18T07:13:03.896Z,90.09
2019-02-18T07:14:02.436Z,90.47
2019-02-18T07:15:01.139Z,91.42
2019-02-18T07:15:59.863Z,92.42
2019-02-18T07:16:58.482Z,94.23
2019-02-18T07:17:57.092Z,93.94
2019-02-18T07:18:55.617Z,94.89
2019-02-18T07:19:54.123Z,96.69
2019-02-18T07:20:52.712Z,96.6
2019-02-18T07:21:51.215Z,96.6
2019-02-18T07:22:49.770Z,99.99
2019-02-18T07:23:48.335Z,99.99
2019-02-18T07:24:46.889Z,99.99
2019-02-18T07:25:45.486Z,99.99
2019-02-18T07:26:44.188Z,99.99
2019-02-18T07:27:43.166Z,99.99
2019-02-18T07:28:41.902Z,99.99
2019-02-18T07:29:40.594Z,99.99
2019-02-18T07:30:39.178Z,99.99
2019-02-18T07:31:37.836Z,99.99
2019-02-18T07:32:36.385Z,99.99
2019-02-18T07:33:34.906Z,99.99
2019-02-18T07:34:34.363Z,99.99
2019-02-18T07:35:32.909Z,99.99
2019-02-18T07:36:31.508Z,99.99
2019-02-18T07:37:30.198Z,99.99
2019-02-18T07:38:28.788Z,99.99
2019-02-18T07:39:27.383Z,99.99
2019-02-18T07:40:25.917Z,99.99
2019-02-18T07:41:24.490Z,99.99
2019-02-18T07:42:23.027Z,99.99
2019-02-18T07:43:23.104Z,99.99
2019-02-18T07:44:20.111Z,99.99
2019-02-18T07:45:18.655Z,99.99
2019-02-18T07:46:17.193Z,99.99
2019-02-18T07:47:15.772Z,99.99
2019-02-18T07:48:14.567Z,99.4
2019-02-18T07:49:13.153Z,98.45
2019-02-18T07:50:20.187Z,98.17
2019-02-18T07:51:10.621Z,98.07
2019-02-18T07:52:09.231Z,97.31
2019-02-18T07:53:07.786Z,97.97
2019-02-18T07:54:06.590Z,99.99
2019-02-18T07:55:05.134Z,99.99
2019-02-18T07:56:03.747Z,99.99
2019-02-18T07:57:02.397Z,99.99
2019-02-18T07:58:00.971Z,99.3
2019-02-18T07:58:59.501Z,99.02
2019-02-18T07:59:58.188Z,99.99
2019-02-18T08:00:56.855Z,99.99
2019-02-18T08:01:55.360Z,99.99
2019-02-18T08:02:53.930Z,99.99
2019-02-18T08:03:52.458Z,99.99
2019-02-18T08:04:51.049Z,99.99
2019-02-18T08:05:49.588Z,99.99
2019-02-18T08:06:48.350Z,99.99
2019-02-18T08:07:46.916Z,99.99
2019-02-18T08:08:45.467Z,99.99
2019-02-18T08:09:44.115Z,99.99
2019-02-18T08:10:42.731Z,99.99
2019-02-18T08:11:41.296Z,99.99
2019-02-18T08:12:39.856Z,99.99
2019-02-18T08:13:38.411Z,99.99
2019-02-18T08:14:37.053Z,99.99
2019-02-18T08:15:35.603Z,99.99
2019-02-18T08:16:34.421Z,99.99
2019-02-18T08:17:32.954Z,99.99
2019-02-18T08:18:31.474Z,99.99
2019-02-18T08:20:47.306Z,99.99
2019-02-18T08:21:45.950Z,99.99
2019-02-18T08:22:44.551Z,99.99
2019-02-18T08:23:43.152Z,99.99
2019-02-18T08:24:41.666Z,99.99
2019-02-18T08:25:40.256Z,99.99
2019-02-18T08:26:38.838Z,99.99
2019-02-18T08:27:37.399Z,99.99
2019-02-18T08:28:36.219Z,99.99
2019-02-18T08:29:34.805Z,99.99
2019-02-18T08:30:33.323Z,99.99
2019-02-18T08:31:31.861Z,99.99
2019-02-18T08:32:30.688Z,99.5
2019-02-18T08:33:29.236Z,99.99
2019-02-18T08:34:27.751Z,97.79
2019-02-18T08:35:26.358Z,91.89
2019-02-18T08:36:24.938Z,91.51
2019-02-18T08:37:23.458Z,92.65
2019-02-18T08:38:22.036Z,92.65
2019-02-18T08:39:20.571Z,89.32
2019-02-18T08:40:22.245Z,89.14
2019-02-18T08:41:17.932Z,88.75
2019-02-18T08:42:16.474Z,85.42
2019-02-18T08:43:15.070Z,84.95
2019-02-18T08:44:13.662Z,86.28
2019-02-18T08:45:12.499Z,86.28
2019-02-18T08:46:11.023Z,85.42
2019-02-18T08:47:09.584Z,84.66
2019-02-18T08:48:08.513Z,83.33
2019-02-18T08:49:07.048Z,83.62
2019-02-18T08:50:05.657Z,85.42
2019-02-18T08:51:04.411Z,83.62
2019-02-18T08:52:03.084Z,82.95
2019-02-18T08:53:01.713Z,83.9
2019-02-18T08:54:00.527Z,82.28
2019-02-18T08:54:59.111Z,83.04
2019-02-18T08:55:57.665Z,83.04
2019-02-18T08:56:56.228Z,86.22
2019-02-18T08:57:55.009Z,92.99
2019-02-18T08:58:53.624Z,99.99
2019-02-18T08:59:52.230Z,99.99
2019-02-18T09:00:50.778Z,99.99
2019-02-18T09:01:49.317Z,99.99
2019-02-18T09:02:47.886Z,99.99
2019-02-18T09:03:55.828Z,99.99
2019-02-18T09:04:54.545Z,99.99
2019-02-18T09:05:53.134Z,99.99
2019-02-18T09:06:51.645Z,99.99
2019-02-18T09:07:50.233Z,99.99
2019-02-18T09:08:48.790Z,99.99
2019-02-18T09:09:47.307Z,92.79
2019-02-18T09:10:46.093Z,91.75
2019-02-18T09:11:44.765Z,99.99
2019-02-18T09:12:43.328Z,99.99
2019-02-18T09:13:42.032Z,99.99
2019-02-18T09:14:40.683Z,99.99
2019-02-18T09:15:39.263Z,99.99
2019-02-18T09:16:37.759Z,98.13
2019-02-18T09:17:36.306Z,89.37
2019-02-18T09:18:34.981Z,87.75
2019-02-18T09:19:33.582Z,87.75
2019-02-18T09:20:32.327Z,86.32
2019-02-18T09:21:30.903Z,84.33
2019-02-18T09:22:29.488Z,81.09
2019-02-18T09:23:28.178Z,79.85
2019-02-18T09:24:27.357Z,80.04
2019-02-18T09:25:26.163Z,80.99
2019-02-18T09:26:24.866Z,81.66
2019-02-18T09:27:23.442Z,81.76
2019-02-18T09:28:22.005Z,81.76
2019-02-18T09:29:20.578Z,80.52
2019-02-18T09:30:19.172Z,79.57
2019-02-18T09:31:17.717Z,79.09
2019-02-18T09:32:16.510Z,82.23
2019-02-18T09:33:15.068Z,81.09
2019-02-18T09:34:13.660Z,80.04
2019-02-18T09:35:12.417Z,80.13
2019-02-18T09:36:11.067Z,99.99
2019-02-18T09:37:09.720Z,99.99
2019-02-18T09:38:08.305Z,99.99
2019-02-18T09:39:06.862Z,99.99
2019-02-18T09:40:05.433Z,94.56
2019-02-18T09:41:04.115Z,89.51
2019-02-18T09:42:02.933Z,92.08
2019-02-18T09:43:01.717Z,86.08
2019-02-18T09:44:00.297Z,82.37
2019-02-18T09:44:58.824Z,85.32
2019-02-18T09:45:57.373Z,83.22
2019-02-18T09:46:56.141Z,88.56
2019-02-18T09:47:54.772Z,85.32
2019-02-18T09:48:53.328Z,80.94
2019-02-18T09:49:52.151Z,80.65
2019-02-18T09:50:50.663Z,91.13
2019-02-18T09:51:49.174Z,85.22
2019-02-18T09:52:47.716Z,87.03
2019-02-18T09:53:46.346Z,91.99
2019-02-18T09:54:44.928Z,99.99
2019-02-18T09:55:43.548Z,98.41
2019-02-18T09:56:42.395Z,86.79
2019-02-18T09:57:40.928Z,80.36
2019-02-18T09:58:39.468Z,79.51
2019-02-18T09:59:38.034Z,80.36
2019-02-18T10:00:36.714Z,77.7
2019-02-18T10:01:35.294Z,79.89
2019-02-18T10:02:33.852Z,83.51
2019-02-18T10:03:32.534Z,90.12
2019-02-18T10:04:31.067Z,94.89
2019-02-18T10:05:29.682Z,94.7
2019-02-18T10:06:28.319Z,93.27
2019-02-18T10:07:26.863Z,99.99
2019-02-18T10:08:25.430Z,99.99
2019-02-18T10:09:24.115Z,99.99
2019-02-18T10:10:22.691Z,99.99
2019-02-18T10:11:21.250Z,99.99
2019-02-18T10:12:20.007Z,94.22
2019-02-18T10:13:18.624Z,92.98
2019-02-18T10:14:17.160Z,92.6
2019-02-18T10:15:15.662Z,88.6
2019-02-18T10:16:14.401Z,85.93
2019-02-18T10:17:12.859Z,81.65
2019-02-18T10:18:11.386Z,80.98
2019-02-18T10:19:10.311Z,80.22
2019-02-18T10:20:09.029Z,79.64
2019-02-18T10:21:07.559Z,89.36
2019-02-18T10:22:06.322Z,91.22
2019-02-18T10:23:04.886Z,91.31
2019-02-18T10:24:03.447Z,99.99
2019-02-18T10:25:02.322Z,86.36
2019-02-18T10:26:01.024Z,79.55
2019-02-18T10:26:59.619Z,77.93
2019-02-18T10:29:08.539Z,85.36
2019-02-18T10:30:07.184Z,85.41
2019-02-18T10:31:05.739Z,83.21
2019-02-18T10:32:04.276Z,99.99
2019-02-18T10:33:02.934Z,89.5
2019-02-18T10:34:01.448Z,85.78
2019-02-18T10:35:00.360Z,88.93
2019-02-18T10:35:58.832Z,87.21
2019-02-18T10:36:57.395Z,93.12
2019-02-18T10:37:56.126Z,96.17
2019-02-18T10:38:54.792Z,94.56
2019-02-18T10:39:53.327Z,99.99
2019-02-18T10:40:51.869Z,92.93
2019-02-18T10:41:50.389Z,88.55
2019-02-18T10:42:48.925Z,85.5
2019-02-18T10:43:47.536Z,83.78
2019-02-18T10:44:46.169Z,80.35
2019-02-18T10:45:44.856Z,79.4
2019-02-18T10:46:43.529Z,79.02
2019-02-18T10:47:42.207Z,77.78
2019-02-18T10:48:40.806Z,78.25
2019-02-18T10:49:39.356Z,78.92
2019-02-18T10:50:37.891Z,84.97
2019-02-18T10:51:36.485Z,93.08
2019-02-18T10:52:35.092Z,90.31
2019-02-18T10:53:33.647Z,87.93
2019-02-18T10:54:32.187Z,82.11
2019-02-18T10:55:31.135Z,80.01
2019-02-18T10:56:29.592Z,79.4
2019-02-18T10:57:28.145Z,77.25
2019-02-18T10:58:26.891Z,77.2
2019-02-18T11:00:26.601Z,79.15
2019-02-18T11:01:25.161Z,81.35
2019-02-18T11:02:23.667Z,95.08
2019-02-18T11:04:39.614Z,99.99
2019-02-18T11:05:38.137Z,99.99
2019-02-18T11:06:36.797Z,99.99
2019-02-18T11:07:35.347Z,99.99
2019-02-18T11:08:33.955Z,92.79
2019-02-18T11:09:32.625Z,89.93
2019-02-18T11:10:31.176Z,85.73
2019-02-18T11:11:29.777Z,82.4
2019-02-18T11:12:29.284Z,80.77
2019-02-18T11:13:27.841Z,79.72
2019-02-18T11:14:26.631Z,78.77
2019-02-18T11:15:25.302Z,79.63
2019-02-18T11:16:23.861Z,78.2
2019-02-18T11:17:22.602Z,77.82
2019-02-18T11:18:21.156Z,79.63
2019-02-18T11:19:19.769Z,83.64
2019-02-18T11:20:18.442Z,93.88
2019-02-18T11:21:17.107Z,95.32
2019-02-18T11:22:15.657Z,94.17
2019-02-18T11:23:14.315Z,85.11
2019-02-18T11:24:12.947Z,81.77
2019-02-18T11:25:11.509Z,76.9
2019-02-18T11:26:10.031Z,76.71
2019-02-18T11:27:08.596Z,77.19
2019-02-18T11:28:07.150Z,98.37
2019-02-18T11:29:05.699Z,96.17
2019-02-18T11:30:04.597Z,87.59
2019-02-18T11:31:03.189Z,88.16
2019-02-18T11:32:01.719Z,86.35
2019-02-18T11:33:00.433Z,81.1
2019-02-18T11:33:58.983Z,77
2019-02-18T11:34:57.575Z,87.59
2019-02-18T11:35:56.165Z,75.09
2019-02-18T11:36:54.758Z,77
2019-02-18T11:37:53.301Z,85.58
2019-02-18T11:38:51.867Z,86.35
2019-02-18T11:39:50.654Z,83.77
2019-02-18T11:40:49.395Z,85.68
2019-02-18T11:41:47.957Z,84.82
2019-02-18T11:42:46.694Z,82.43
2019-02-18T11:43:45.228Z,79.57
2019-02-18T11:44:43.799Z,77.95
2019-02-18T11:45:42.350Z,83.87
2019-02-18T11:46:40.922Z,80.72
2019-02-18T11:47:39.466Z,86.92
2019-02-18T11:48:38.973Z,91.83
2019-02-18T11:49:37.521Z,89.12
2019-02-18T11:50:36.333Z,84.53
2019-02-18T11:51:34.886Z,86.44
2019-02-18T11:52:33.434Z,89.4
2019-02-18T11:53:31.992Z,92.97
2019-02-18T11:54:30.705Z,89.06
2019-02-18T11:55:29.237Z,81.2
2019-02-18T11:56:27.798Z,75.85
2019-02-18T11:57:26.527Z,74.52
2019-02-18T11:58:25.140Z,74.04
2019-02-18T11:59:24.611Z,75.09
2019-02-18T12:00:22.546Z,72.23
2019-02-18T12:01:21.134Z,71.37
2019-02-18T12:02:19.726Z,69.93
2019-02-18T12:03:18.389Z,70.13
2019-02-18T12:04:17.121Z,69.74
2019-02-18T12:05:15.712Z,70.03
2019-02-18T12:06:14.267Z,69.37
2019-02-18T12:07:12.933Z,70.13
2019-02-18T12:08:11.502Z,70.32
2019-02-18T12:09:10.075Z,72.32
2019-02-18T12:10:08.736Z,72.51
2019-02-18T12:11:07.300Z,73.03
2019-02-18T12:12:05.933Z,70.98
2019-02-18T12:13:04.589Z,70.92
2019-02-18T12:14:03.195Z,70.42
2019-02-18T12:15:01.724Z,79.33
2019-02-18T12:16:00.314Z,80.47
2019-02-18T12:16:58.902Z,79.23
2019-02-18T12:17:57.439Z,75.6
2019-02-18T12:18:55.994Z,73.98
2019-02-18T12:19:54.689Z,71.88
2019-02-18T12:20:53.252Z,70.45
2019-02-18T12:21:51.791Z,70.92
2019-02-18T12:22:50.381Z,81.52
2019-02-18T12:23:48.980Z,95.46
2019-02-18T12:24:47.541Z,85.15
2019-02-18T12:25:46.148Z,82.48
2019-02-18T12:26:44.784Z,82.38
2019-02-18T12:27:43.342Z,79.23
2019-02-18T12:28:41.886Z,76.46
2019-02-18T12:29:40.543Z,76.18
2019-02-18T12:30:39.123Z,72.36
2019-02-18T12:31:37.774Z,69.78
2019-02-18T12:32:36.519Z,70.45
2019-02-18T12:33:35.022Z,75.03
2019-02-18T12:34:33.692Z,85.05
2019-02-18T12:35:32.968Z,82.95
2019-02-18T12:36:30.949Z,76.84
2019-02-18T12:37:30.149Z,75.79
2019-02-18T12:38:28.098Z,74.27
2019-02-18T12:39:26.759Z,74.17
2019-02-18T12:40:25.475Z,73.98
2019-02-18T12:41:24.156Z,77.89
2019-02-18T12:42:23.005Z,85.29
2019-02-18T12:43:21.592Z,81.56